sensor_id;sensor_type;location;lat;lon;timestamp;temperature;humidity
10249;DHT22;5169;50.560;9.714;2023-04-25T00:01:29;8.60;99.90
10249;DHT22;5169;50.560;9.714;2023-04-25T00:03:56;8.70;99.90
10249;DHT22;5169;50.560;9.714;2023-04-25T00:06:22;8.70;99.90
10249;DHT22;5169;50.560;9.714;2023-04-25T00:08:54;8.70;99.90
10249;DHT22;5169;50.560;9.714;2023-04-25T00:11:21;8.60;99.90
10249;DHT22;5169;50.560;9.714;2023-04-25T00:13:46;8.50;99.90
10249;DHT22;5169;50.560;9.714;2023-04-25T00:16:17;8.40;99.90
10249;DHT22;5169;50.560;9.714;2023-04-25T00:18:42;8.50;99.90
10249;DHT22;5169;50.560;9.714;2023-04-25T00:21:08;8.50;99.90
10249;DHT22;5169;50.560;9.714;2023-04-25T00:23:36;8.30;99.90
10249;DHT22;5169;50.560;9.714;2023-04-25T00:26:05;8.40;99.90
10249;DHT22;5169;50.560;9.714;2023-04-25T00:28:30;8.40;99.90
10249;DHT22;5169;50.560;9.714;2023-04-25T00:30:56;8.40;99.90
10249;DHT22;5169;50.560;9.714;2023-04-25T00:33:21;8.50;99.90
10249;DHT22;5169;50.560;9.714;2023-04-25T00:35:47;8.40;99.90
10249;DHT22;5169;50.560;9.714;2023-04-25T00:38:13;8.40;99.90
10249;DHT22;5169;50.560;9.714;2023-04-25T00:40:41;8.40;99.90
10249;DHT22;5169;50.560;9.714;2023-04-25T00:43:09;8.50;99.90
10249;DHT22;5169;50.560;9.714;2023-04-25T00:45:41;8.50;99.90
10249;DHT22;5169;50.560;9.714;2023-04-25T00:48:08;8.60;99.90
10249;DHT22;5169;50.560;9.714;2023-04-25T00:50:36;8.60;99.90
10249;DHT22;5169;50.560;9.714;2023-04-25T00:53:08;8.60;99.90
10249;DHT22;5169;50.560;9.714;2023-04-25T00:55:35;8.50;99.90
10249;DHT22;5169;50.560;9.714;2023-04-25T00:58:01;8.50;99.90
10249;DHT22;5169;50.560;9.714;2023-04-25T01:00:30;8.50;99.90
10249;DHT22;5169;50.560;9.714;2023-04-25T01:02:56;8.50;99.90
10249;DHT22;5169;50.560;9.714;2023-04-25T01:05:22;8.50;99.90
10249;DHT22;5169;50.560;9.714;2023-04-25T01:07:50;8.50;99.90
10249;DHT22;5169;50.560;9.714;2023-04-25T01:10:15;8.40;99.90
10249;DHT22;5169;50.560;9.714;2023-04-25T01:12:42;8.40;99.90
10249;DHT22;5169;50.560;9.714;2023-04-25T01:15:10;8.40;99.90
10249;DHT22;5169;50.560;9.714;2023-04-25T01:17:36;8.40;99.90
10249;DHT22;5169;50.560;9.714;2023-04-25T01:20:07;8.20;99.90
10249;DHT22;5169;50.560;9.714;2023-04-25T01:22:35;8.20;99.90
10249;DHT22;5169;50.560;9.714;2023-04-25T01:25:00;8.30;99.90
10249;DHT22;5169;50.560;9.714;2023-04-25T01:27:33;8.20;99.90
10249;DHT22;5169;50.560;9.714;2023-04-25T01:30:00;8.20;99.90
10249;DHT22;5169;50.560;9.714;2023-04-25T01:32:26;8.20;99.90
10249;DHT22;5169;50.560;9.714;2023-04-25T01:34:54;8.20;99.90
10249;DHT22;5169;50.560;9.714;2023-04-25T01:37:23;8.20;99.90
10249;DHT22;5169;50.560;9.714;2023-04-25T01:39:48;8.10;99.90
10249;DHT22;5169;50.560;9.714;2023-04-25T01:42:21;8.00;99.90
10249;DHT22;5169;50.560;9.714;2023-04-25T01:44:47;8.00;99.90
10249;DHT22;5169;50.560;9.714;2023-04-25T01:47:12;8.00;99.90
10249;DHT22;5169;50.560;9.714;2023-04-25T01:49:43;8.10;99.90
10249;DHT22;5169;50.560;9.714;2023-04-25T01:52:09;8.10;99.90
10249;DHT22;5169;50.560;9.714;2023-04-25T01:54:34;8.10;99.90
10249;DHT22;5169;50.560;9.714;2023-04-25T01:57:00;8.20;99.90
10249;DHT22;5169;50.560;9.714;2023-04-25T01:59:27;8.20;99.90
10249;DHT22;5169;50.560;9.714;2023-04-25T02:01:58;8.10;99.90
10249;DHT22;5169;50.560;9.714;2023-04-25T02:04:26;8.10;99.90
10249;DHT22;5169;50.560;9.714;2023-04-25T02:06:58;8.20;99.90
10249;DHT22;5169;50.560;9.714;2023-04-25T02:09:24;8.10;99.90
10249;DHT22;5169;50.560;9.714;2023-04-25T02:11:57;8.00;99.90
10249;DHT22;5169;50.560;9.714;2023-04-25T02:14:27;8.00;99.90
10249;DHT22;5169;50.560;9.714;2023-04-25T02:16:59;8.00;99.90
10249;DHT22;5169;50.560;9.714;2023-04-25T02:19:25;8.00;99.90
10249;DHT22;5169;50.560;9.714;2023-04-25T02:21:58;8.10;99.90
10249;DHT22;5169;50.560;9.714;2023-04-25T02:24:23;8.20;99.90
10249;DHT22;5169;50.560;9.714;2023-04-25T02:26:57;8.20;99.90
10249;DHT22;5169;50.560;9.714;2023-04-25T02:29:23;8.20;99.90
10249;DHT22;5169;50.560;9.714;2023-04-25T02:31:48;8.10;99.90
10249;DHT22;5169;50.560;9.714;2023-04-25T02:34:20;8.10;99.90
10249;DHT22;5169;50.560;9.714;2023-04-25T02:36:45;8.10;99.90
10249;DHT22;5169;50.560;9.714;2023-04-25T02:39:11;8.10;99.90
10249;DHT22;5169;50.560;9.714;2023-04-25T02:41:39;7.90;99.90
10249;DHT22;5169;50.560;9.714;2023-04-25T02:44:10;7.90;99.90
10249;DHT22;5169;50.560;9.714;2023-04-25T02:46:36;8.00;99.90
10249;DHT22;5169;50.560;9.714;2023-04-25T02:49:07;8.00;99.90
10249;DHT22;5169;50.560;9.714;2023-04-25T02:51:32;8.00;99.90
10249;DHT22;5169;50.560;9.714;2023-04-25T02:54:02;8.10;99.90
10249;DHT22;5169;50.560;9.714;2023-04-25T02:56:29;8.00;99.90
10249;DHT22;5169;50.560;9.714;2023-04-25T02:59:04;7.90;99.90
10249;DHT22;5169;50.560;9.714;2023-04-25T03:01:30;7.80;99.90
10249;DHT22;5169;50.560;9.714;2023-04-25T03:03:59;7.70;99.90
10249;DHT22;5169;50.560;9.714;2023-04-25T03:06:27;7.50;99.90
10249;DHT22;5169;50.560;9.714;2023-04-25T03:08:52;7.50;99.90
10249;DHT22;5169;50.560;9.714;2023-04-25T03:11:18;7.30;99.90
10249;DHT22;5169;50.560;9.714;2023-04-25T03:13:47;7.20;99.90
10249;DHT22;5169;50.560;9.714;2023-04-25T03:16:12;7.10;99.90
10249;DHT22;5169;50.560;9.714;2023-04-25T03:18:38;7.10;99.90
10249;DHT22;5169;50.560;9.714;2023-04-25T03:21:04;7.00;99.90
10249;DHT22;5169;50.560;9.714;2023-04-25T03:23:29;7.00;99.90
10249;DHT22;5169;50.560;9.714;2023-04-25T03:26:01;6.90;99.90
10249;DHT22;5169;50.560;9.714;2023-04-25T03:28:29;6.80;99.90
10249;DHT22;5169;50.560;9.714;2023-04-25T03:30:55;6.80;99.90
10249;DHT22;5169;50.560;9.714;2023-04-25T03:33:20;6.70;99.90
10249;DHT22;5169;50.560;9.714;2023-04-25T03:35:50;6.70;99.90
10249;DHT22;5169;50.560;9.714;2023-04-25T03:38:18;6.60;99.90
10249;DHT22;5169;50.560;9.714;2023-04-25T03:40:49;6.70;99.90
10249;DHT22;5169;50.560;9.714;2023-04-25T03:43:17;6.60;99.90
10249;DHT22;5169;50.560;9.714;2023-04-25T03:45:47;6.50;99.90
10249;DHT22;5169;50.560;9.714;2023-04-25T03:48:17;6.50;99.90
10249;DHT22;5169;50.560;9.714;2023-04-25T03:50:42;6.40;99.90
10249;DHT22;5169;50.560;9.714;2023-04-25T03:53:11;6.50;99.90
10249;DHT22;5169;50.560;9.714;2023-04-25T03:55:37;6.50;99.90
10249;DHT22;5169;50.560;9.714;2023-04-25T03:58:03;6.40;99.90
10249;DHT22;5169;50.560;9.714;2023-04-25T04:00:28;6.40;99.90
10249;DHT22;5169;50.560;9.714;2023-04-25T04:02:54;6.40;99.90
10249;DHT22;5169;50.560;9.714;2023-04-25T04:05:19;6.40;99.90
10249;DHT22;5169;50.560;9.714;2023-04-25T04:07:48;6.40;99.90
10249;DHT22;5169;50.560;9.714;2023-04-25T04:10:16;6.40;99.90
10249;DHT22;5169;50.560;9.714;2023-04-25T04:12:42;6.30;99.90
10249;DHT22;5169;50.560;9.714;2023-04-25T04:15:08;6.30;99.90
10249;DHT22;5169;50.560;9.714;2023-04-25T04:17:34;6.20;99.90
10249;DHT22;5169;50.560;9.714;2023-04-25T04:20:07;6.10;99.90
10249;DHT22;5169;50.560;9.714;2023-04-25T04:22:42;6.10;99.90
10249;DHT22;5169;50.560;9.714;2023-04-25T04:25:10;6.10;99.90
10249;DHT22;5169;50.560;9.714;2023-04-25T04:27:40;6.00;99.90
10249;DHT22;5169;50.560;9.714;2023-04-25T04:30:07;6.00;99.90
10249;DHT22;5169;50.560;9.714;2023-04-25T04:32:35;6.00;99.90
10249;DHT22;5169;50.560;9.714;2023-04-25T04:35:04;6.00;99.90
10249;DHT22;5169;50.560;9.714;2023-04-25T04:37:34;5.90;99.90
10249;DHT22;5169;50.560;9.714;2023-04-25T04:40:00;5.90;99.90
10249;DHT22;5169;50.560;9.714;2023-04-25T04:42:35;6.00;99.90
10249;DHT22;5169;50.560;9.714;2023-04-25T04:45:04;5.90;99.90
10249;DHT22;5169;50.560;9.714;2023-04-25T04:47:30;5.90;99.90
10249;DHT22;5169;50.560;9.714;2023-04-25T04:49:59;5.90;99.90
10249;DHT22;5169;50.560;9.714;2023-04-25T04:52:30;5.90;99.90
10249;DHT22;5169;50.560;9.714;2023-04-25T04:54:58;5.90;99.90
10249;DHT22;5169;50.560;9.714;2023-04-25T04:57:23;6.00;99.90
10249;DHT22;5169;50.560;9.714;2023-04-25T04:59:56;6.10;99.90
10249;DHT22;5169;50.560;9.714;2023-04-25T05:02:24;6.10;99.90
10249;DHT22;5169;50.560;9.714;2023-04-25T05:04:52;6.20;99.90
10249;DHT22;5169;50.560;9.714;2023-04-25T05:07:18;6.20;99.90
10249;DHT22;5169;50.560;9.714;2023-04-25T05:09:44;6.20;99.90
10249;DHT22;5169;50.560;9.714;2023-04-25T05:12:17;6.20;99.90
10249;DHT22;5169;50.560;9.714;2023-04-25T05:14:48;6.20;99.90
10249;DHT22;5169;50.560;9.714;2023-04-25T05:17:16;6.30;99.90
10249;DHT22;5169;50.560;9.714;2023-04-25T05:19:42;6.30;99.90
10249;DHT22;5169;50.560;9.714;2023-04-25T05:22:07;6.40;99.90
10249;DHT22;5169;50.560;9.714;2023-04-25T05:24:43;6.40;99.90
10249;DHT22;5169;50.560;9.714;2023-04-25T05:27:08;6.50;99.90
10249;DHT22;5169;50.560;9.714;2023-04-25T05:29:46;6.70;99.90
10249;DHT22;5169;50.560;9.714;2023-04-25T05:32:12;6.70;99.90
10249;DHT22;5169;50.560;9.714;2023-04-25T05:34:43;6.80;99.90
10249;DHT22;5169;50.560;9.714;2023-04-25T05:37:09;6.70;99.90
10249;DHT22;5169;50.560;9.714;2023-04-25T05:39:35;6.80;99.90
10249;DHT22;5169;50.560;9.714;2023-04-25T05:42:08;6.90;99.90
10249;DHT22;5169;50.560;9.714;2023-04-25T05:44:34;7.20;99.90
10249;DHT22;5169;50.560;9.714;2023-04-25T05:47:06;7.70;99.90
10249;DHT22;5169;50.560;9.714;2023-04-25T05:49:32;8.30;99.90
10249;DHT22;5169;50.560;9.714;2023-04-25T05:51:57;8.50;99.90
10249;DHT22;5169;50.560;9.714;2023-04-25T05:54:23;8.30;99.90
10249;DHT22;5169;50.560;9.714;2023-04-25T05:56:52;8.20;99.90
10249;DHT22;5169;50.560;9.714;2023-04-25T05:59:20;8.20;99.90
10249;DHT22;5169;50.560;9.714;2023-04-25T06:01:46;8.20;99.90
10249;DHT22;5169;50.560;9.714;2023-04-25T06:04:12;8.20;99.90
10249;DHT22;5169;50.560;9.714;2023-04-25T06:06:46;8.00;99.90
10249;DHT22;5169;50.560;9.714;2023-04-25T06:09:11;7.80;99.90
10249;DHT22;5169;50.560;9.714;2023-04-25T06:11:40;7.90;99.90
10249;DHT22;5169;50.560;9.714;2023-04-25T06:14:06;7.90;99.90
10249;DHT22;5169;50.560;9.714;2023-04-25T06:16:32;7.80;99.90
10249;DHT22;5169;50.560;9.714;2023-04-25T06:18:58;7.90;99.90
10249;DHT22;5169;50.560;9.714;2023-04-25T06:21:23;7.90;99.90
10249;DHT22;5169;50.560;9.714;2023-04-25T06:23:55;7.80;99.90
10249;DHT22;5169;50.560;9.714;2023-04-25T06:26:23;7.80;99.90
10249;DHT22;5169;50.560;9.714;2023-04-25T06:28:52;7.90;99.90
10249;DHT22;5169;50.560;9.714;2023-04-25T06:31:20;7.90;99.90
10249;DHT22;5169;50.560;9.714;2023-04-25T06:33:48;7.80;99.90
10249;DHT22;5169;50.560;9.714;2023-04-25T06:36:19;7.70;99.90
10249;DHT22;5169;50.560;9.714;2023-04-25T06:38:53;7.60;99.90
10249;DHT22;5169;50.560;9.714;2023-04-25T06:41:20;7.50;99.90
10249;DHT22;5169;50.560;9.714;2023-04-25T06:43:46;7.40;99.90
10249;DHT22;5169;50.560;9.714;2023-04-25T06:46:11;7.50;99.90
10249;DHT22;5169;50.560;9.714;2023-04-25T06:48:39;7.60;99.90
10249;DHT22;5169;50.560;9.714;2023-04-25T06:51:05;7.60;99.90
10249;DHT22;5169;50.560;9.714;2023-04-25T06:53:31;7.70;99.90
10249;DHT22;5169;50.560;9.714;2023-04-25T06:55:56;7.90;99.90
10249;DHT22;5169;50.560;9.714;2023-04-25T06:58:22;8.00;99.90
10249;DHT22;5169;50.560;9.714;2023-04-25T07:00:47;8.10;99.90
10249;DHT22;5169;50.560;9.714;2023-04-25T07:03:20;8.20;99.90
10249;DHT22;5169;50.560;9.714;2023-04-25T07:05:46;8.20;99.90
10249;DHT22;5169;50.560;9.714;2023-04-25T07:08:19;8.30;99.90
10249;DHT22;5169;50.560;9.714;2023-04-25T07:10:46;8.20;99.90
10249;DHT22;5169;50.560;9.714;2023-04-25T07:13:19;8.10;99.90
10249;DHT22;5169;50.560;9.714;2023-04-25T07:15:45;8.10;99.90
10249;DHT22;5169;50.560;9.714;2023-04-25T07:18:10;8.10;99.90
10249;DHT22;5169;50.560;9.714;2023-04-25T07:20:36;8.10;99.90
10249;DHT22;5169;50.560;9.714;2023-04-25T07:23:05;8.20;99.90
10249;DHT22;5169;50.560;9.714;2023-04-25T07:25:31;8.20;99.90
10249;DHT22;5169;50.560;9.714;2023-04-25T07:27:59;8.20;99.90
10249;DHT22;5169;50.560;9.714;2023-04-25T07:30:33;8.30;99.90
10249;DHT22;5169;50.560;9.714;2023-04-25T07:33:05;8.20;99.90
10249;DHT22;5169;50.560;9.714;2023-04-25T07:35:33;8.20;99.90
10249;DHT22;5169;50.560;9.714;2023-04-25T07:38:06;8.10;99.90
10249;DHT22;5169;50.560;9.714;2023-04-25T07:40:35;8.20;99.90
10249;DHT22;5169;50.560;9.714;2023-04-25T07:43:08;8.30;99.90
10249;DHT22;5169;50.560;9.714;2023-04-25T07:45:34;8.40;99.90
10249;DHT22;5169;50.560;9.714;2023-04-25T07:47:59;8.50;99.90
10249;DHT22;5169;50.560;9.714;2023-04-25T07:50:35;8.70;99.90
10249;DHT22;5169;50.560;9.714;2023-04-25T07:53:00;8.80;99.90
10249;DHT22;5169;50.560;9.714;2023-04-25T07:55:26;8.90;99.90
10249;DHT22;5169;50.560;9.714;2023-04-25T07:57:57;8.70;99.90
10249;DHT22;5169;50.560;9.714;2023-04-25T08:00:23;8.60;99.90
10249;DHT22;5169;50.560;9.714;2023-04-25T08:02:48;8.80;99.90
10249;DHT22;5169;50.560;9.714;2023-04-25T08:05:19;8.90;99.90
10249;DHT22;5169;50.560;9.714;2023-04-25T08:07:44;8.80;99.90
10249;DHT22;5169;50.560;9.714;2023-04-25T08:10:10;8.90;99.90
10249;DHT22;5169;50.560;9.714;2023-04-25T08:12:36;9.00;99.90
10249;DHT22;5169;50.560;9.714;2023-04-25T08:15:09;9.50;99.90
10249;DHT22;5169;50.560;9.714;2023-04-25T08:17:35;9.90;99.90
10249;DHT22;5169;50.560;9.714;2023-04-25T08:20:01;9.90;99.90
10249;DHT22;5169;50.560;9.714;2023-04-25T08:22:31;10.00;99.90
10249;DHT22;5169;50.560;9.714;2023-04-25T08:24:57;10.20;99.90
10249;DHT22;5169;50.560;9.714;2023-04-25T08:27:23;10.20;99.90
10249;DHT22;5169;50.560;9.714;2023-04-25T08:29:51;10.30;99.90
10249;DHT22;5169;50.560;9.714;2023-04-25T08:32:23;10.30;99.90
10249;DHT22;5169;50.560;9.714;2023-04-25T08:34:48;10.30;99.90
10249;DHT22;5169;50.560;9.714;2023-04-25T08:37:22;10.20;99.90
10249;DHT22;5169;50.560;9.714;2023-04-25T08:39:47;10.40;99.90
10249;DHT22;5169;50.560;9.714;2023-04-25T08:42:24;10.40;99.90
10249;DHT22;5169;50.560;9.714;2023-04-25T08:44:59;10.20;99.90
10249;DHT22;5169;50.560;9.714;2023-04-25T08:47:30;10.10;99.90
10249;DHT22;5169;50.560;9.714;2023-04-25T08:49:58;10.00;99.90
10249;DHT22;5169;50.560;9.714;2023-04-25T08:52:32;10.10;99.90
10249;DHT22;5169;50.560;9.714;2023-04-25T08:55:01;10.10;99.90
10249;DHT22;5169;50.560;9.714;2023-04-25T08:57:33;10.10;99.90
10249;DHT22;5169;50.560;9.714;2023-04-25T08:59:59;9.80;99.90
10249;DHT22;5169;50.560;9.714;2023-04-25T09:02:26;9.80;99.90
10249;DHT22;5169;50.560;9.714;2023-04-25T09:04:55;9.80;99.90
10249;DHT22;5169;50.560;9.714;2023-04-25T09:07:24;9.80;99.90
10249;DHT22;5169;50.560;9.714;2023-04-25T09:09:51;9.80;99.90
10249;DHT22;5169;50.560;9.714;2023-04-25T09:12:19;9.70;99.90
10249;DHT22;5169;50.560;9.714;2023-04-25T09:17:44;9.40;99.90
10249;DHT22;5169;50.560;9.714;2023-04-25T09:20:14;9.20;99.90
10249;DHT22;5169;50.560;9.714;2023-04-25T09:22:45;9.10;99.90
10249;DHT22;5169;50.560;9.714;2023-04-25T09:25:13;8.90;99.90
10249;DHT22;5169;50.560;9.714;2023-04-25T09:27:56;8.80;99.90
10249;DHT22;5169;50.560;9.714;2023-04-25T09:30:33;8.70;99.90
10249;DHT22;5169;50.560;9.714;2023-04-25T09:33:12;8.70;99.90
10249;DHT22;5169;50.560;9.714;2023-04-25T09:35:47;8.80;99.90
10249;DHT22;5169;50.560;9.714;2023-04-25T09:38:19;8.80;99.90
10249;DHT22;5169;50.560;9.714;2023-04-25T09:40:48;9.00;99.90
10249;DHT22;5169;50.560;9.714;2023-04-25T09:43:23;9.00;99.90
10249;DHT22;5169;50.560;9.714;2023-04-25T09:45:50;9.20;99.90
10249;DHT22;5169;50.560;9.714;2023-04-25T09:48:23;9.70;99.90
10249;DHT22;5169;50.560;9.714;2023-04-25T09:51:26;10.50;99.90
10249;DHT22;5169;50.560;9.714;2023-04-25T09:53:56;12.20;99.90
10249;DHT22;5169;50.560;9.714;2023-04-25T09:56:24;12.80;99.90
10249;DHT22;5169;50.560;9.714;2023-04-25T09:58:56;12.80;99.90
10249;DHT22;5169;50.560;9.714;2023-04-25T10:01:23;12.60;99.90
10249;DHT22;5169;50.560;9.714;2023-04-25T10:03:58;12.30;99.90
10249;DHT22;5169;50.560;9.714;2023-04-25T10:06:27;11.90;99.90
10249;DHT22;5169;50.560;9.714;2023-04-25T10:08:57;11.60;99.90
10249;DHT22;5169;50.560;9.714;2023-04-25T10:11:24;11.30;99.90
10249;DHT22;5169;50.560;9.714;2023-04-25T10:13:51;11.00;99.90
10249;DHT22;5169;50.560;9.714;2023-04-25T10:16:24;10.70;99.90
10249;DHT22;5169;50.560;9.714;2023-04-25T10:18:50;10.60;99.90
10249;DHT22;5169;50.560;9.714;2023-04-25T10:21:22;10.50;99.90
10249;DHT22;5169;50.560;9.714;2023-04-25T10:23:48;10.30;99.90
10249;DHT22;5169;50.560;9.714;2023-04-25T10:26:22;10.20;99.90
10249;DHT22;5169;50.560;9.714;2023-04-25T10:29:02;10.10;99.90
10249;DHT22;5169;50.560;9.714;2023-04-25T10:31:45;9.90;99.90
10249;DHT22;5169;50.560;9.714;2023-04-25T10:34:16;9.90;99.90
10249;DHT22;5169;50.560;9.714;2023-04-25T10:36:58;9.90;99.90
10249;DHT22;5169;50.560;9.714;2023-04-25T10:39:34;10.00;99.90
10249;DHT22;5169;50.560;9.714;2023-04-25T10:42:02;10.20;99.90
10249;DHT22;5169;50.560;9.714;2023-04-25T10:44:35;10.60;99.90
10249;DHT22;5169;50.560;9.714;2023-04-25T10:47:02;10.70;99.90
10249;DHT22;5169;50.560;9.714;2023-04-25T10:49:41;10.70;99.90
10249;DHT22;5169;50.560;9.714;2023-04-25T11:02:46;9.20;99.90
10249;DHT22;5169;50.560;9.714;2023-04-25T11:05:34;9.20;99.90
10249;DHT22;5169;50.560;9.714;2023-04-25T11:08:11;9.10;99.90
10249;DHT22;5169;50.560;9.714;2023-04-25T11:10:37;9.10;99.90
10249;DHT22;5169;50.560;9.714;2023-04-25T11:13:08;9.10;99.90
10249;DHT22;5169;50.560;9.714;2023-04-25T11:15:34;9.10;99.90
10249;DHT22;5169;50.560;9.714;2023-04-25T11:18:04;9.30;99.90
10249;DHT22;5169;50.560;9.714;2023-04-25T11:20:33;9.40;99.90
10249;DHT22;5169;50.560;9.714;2023-04-25T11:22:58;9.60;99.90
10249;DHT22;5169;50.560;9.714;2023-04-25T11:25:28;9.80;99.90
10249;DHT22;5169;50.560;9.714;2023-04-25T11:27:58;10.00;99.90
10249;DHT22;5169;50.560;9.714;2023-04-25T11:30:34;10.20;99.90
10249;DHT22;5169;50.560;9.714;2023-04-25T11:32:59;10.00;99.90
10249;DHT22;5169;50.560;9.714;2023-04-25T11:35:27;10.20;99.90
10249;DHT22;5169;50.560;9.714;2023-04-25T11:38:02;10.60;99.90
10249;DHT22;5169;50.560;9.714;2023-04-25T11:40:27;11.30;99.90
10249;DHT22;5169;50.560;9.714;2023-04-25T11:43:01;11.70;99.90
10249;DHT22;5169;50.560;9.714;2023-04-25T11:45:37;11.90;99.90
10249;DHT22;5169;50.560;9.714;2023-04-25T11:48:12;11.60;99.90
10249;DHT22;5169;50.560;9.714;2023-04-25T11:50:41;11.20;99.90
10249;DHT22;5169;50.560;9.714;2023-04-25T11:53:10;10.90;99.90
10249;DHT22;5169;50.560;9.714;2023-04-25T11:55:38;10.70;99.90
10249;DHT22;5169;50.560;9.714;2023-04-25T11:58:05;10.40;99.90
10249;DHT22;5169;50.560;9.714;2023-04-25T12:00:50;10.30;99.90
10249;DHT22;5169;50.560;9.714;2023-04-25T12:03:17;10.10;99.90
10249;DHT22;5169;50.560;9.714;2023-04-25T12:05:46;10.10;99.90
10249;DHT22;5169;50.560;9.714;2023-04-25T12:08:26;10.30;99.90
10249;DHT22;5169;50.560;9.714;2023-04-25T12:10:52;10.60;99.90
10249;DHT22;5169;50.560;9.714;2023-04-25T12:13:25;11.00;99.90
10249;DHT22;5169;50.560;9.714;2023-04-25T12:15:51;11.30;99.90
10249;DHT22;5169;50.560;9.714;2023-04-25T12:18:25;11.40;99.90
10249;DHT22;5169;50.560;9.714;2023-04-25T12:20:54;11.60;99.90
10249;DHT22;5169;50.560;9.714;2023-04-25T12:23:29;11.70;99.90
10249;DHT22;5169;50.560;9.714;2023-04-25T12:26:01;12.00;98.80
10249;DHT22;5169;50.560;9.714;2023-04-25T12:28:28;12.50;99.20
10249;DHT22;5169;50.560;9.714;2023-04-25T12:31:06;14.80;96.80
10249;DHT22;5169;50.560;9.714;2023-04-25T12:33:36;16.50;91.20
10249;DHT22;5169;50.560;9.714;2023-04-25T12:36:06;17.00;89.70
10249;DHT22;5169;50.560;9.714;2023-04-25T12:38:41;17.00;88.20
10249;DHT22;5169;50.560;9.714;2023-04-25T12:41:13;16.40;87.80
10249;DHT22;5169;50.560;9.714;2023-04-25T12:43:41;15.30;88.30
10249;DHT22;5169;50.560;9.714;2023-04-25T12:46:07;14.60;90.10
10249;DHT22;5169;50.560;9.714;2023-04-25T12:48:35;14.10;90.30
10249;DHT22;5169;50.560;9.714;2023-04-25T12:51:01;13.40;91.10
10249;DHT22;5169;50.560;9.714;2023-04-25T12:53:26;12.90;91.60
10249;DHT22;5169;50.560;9.714;2023-04-25T12:55:52;12.50;92.50
10249;DHT22;5169;50.560;9.714;2023-04-25T12:58:18;12.10;93.10
10249;DHT22;5169;50.560;9.714;2023-04-25T13:00:49;11.90;92.40
10249;DHT22;5169;50.560;9.714;2023-04-25T13:03:17;11.70;94.00
10249;DHT22;5169;50.560;9.714;2023-04-25T13:05:43;11.60;94.20
10249;DHT22;5169;50.560;9.714;2023-04-25T13:08:18;11.60;95.10
10249;DHT22;5169;50.560;9.714;2023-04-25T13:10:51;11.60;94.70
10249;DHT22;5169;50.560;9.714;2023-04-25T13:13:16;11.60;95.60
10249;DHT22;5169;50.560;9.714;2023-04-25T13:15:42;11.60;94.90
10249;DHT22;5169;50.560;9.714;2023-04-25T13:18:15;11.50;94.50
10249;DHT22;5169;50.560;9.714;2023-04-25T13:20:41;11.40;94.10
10249;DHT22;5169;50.560;9.714;2023-04-25T13:23:11;11.20;94.70
10249;DHT22;5169;50.560;9.714;2023-04-25T13:25:37;11.20;95.20
10249;DHT22;5169;50.560;9.714;2023-04-25T13:28:05;11.30;93.00
10249;DHT22;5169;50.560;9.714;2023-04-25T13:30:31;11.40;93.00
10249;DHT22;5169;50.560;9.714;2023-04-25T13:33:02;11.40;93.30
10249;DHT22;5169;50.560;9.714;2023-04-25T13:35:38;11.30;93.80
10249;DHT22;5169;50.560;9.714;2023-04-25T13:38:04;11.40;94.30
10249;DHT22;5169;50.560;9.714;2023-04-25T13:40:30;11.50;93.20
10249;DHT22;5169;50.560;9.714;2023-04-25T13:43:02;11.80;93.20
10249;DHT22;5169;50.560;9.714;2023-04-25T13:45:30;12.10;93.30
10249;DHT22;5169;50.560;9.714;2023-04-25T13:47:59;12.30;91.80
10249;DHT22;5169;50.560;9.714;2023-04-25T13:50:25;12.60;93.30
10249;DHT22;5169;50.560;9.714;2023-04-25T13:52:51;12.90;91.50
10249;DHT22;5169;50.560;9.714;2023-04-25T13:55:17;13.00;92.50
10249;DHT22;5169;50.560;9.714;2023-04-25T13:57:48;12.90;91.70
10249;DHT22;5169;50.560;9.714;2023-04-25T14:00:18;12.80;92.30
10249;DHT22;5169;50.560;9.714;2023-04-25T14:02:47;12.60;92.50
10249;DHT22;5169;50.560;9.714;2023-04-25T14:05:13;12.30;91.00
10249;DHT22;5169;50.560;9.714;2023-04-25T14:07:41;12.20;92.60
10249;DHT22;5169;50.560;9.714;2023-04-25T14:10:07;12.30;93.70
10249;DHT22;5169;50.560;9.714;2023-04-25T14:12:36;12.30;93.40
10249;DHT22;5169;50.560;9.714;2023-04-25T14:15:02;12.40;92.30
10249;DHT22;5169;50.560;9.714;2023-04-25T14:17:28;12.40;92.30
10249;DHT22;5169;50.560;9.714;2023-04-25T14:19:53;12.30;93.60
10249;DHT22;5169;50.560;9.714;2023-04-25T14:22:26;12.00;92.60
10249;DHT22;5169;50.560;9.714;2023-04-25T14:24:54;11.90;93.40
10249;DHT22;5169;50.560;9.714;2023-04-25T14:27:26;11.60;93.00
10249;DHT22;5169;50.560;9.714;2023-04-25T14:29:52;11.30;92.90
10249;DHT22;5169;50.560;9.714;2023-04-25T14:32:17;11.10;95.00
10249;DHT22;5169;50.560;9.714;2023-04-25T14:34:48;11.00;94.00
10249;DHT22;5169;50.560;9.714;2023-04-25T14:37:14;10.80;93.90
10249;DHT22;5169;50.560;9.714;2023-04-25T14:39:42;10.60;94.50
10249;DHT22;5169;50.560;9.714;2023-04-25T14:42:15;10.50;94.70
10249;DHT22;5169;50.560;9.714;2023-04-25T14:44:43;10.40;94.30
10249;DHT22;5169;50.560;9.714;2023-04-25T14:47:18;10.50;94.00
10249;DHT22;5169;50.560;9.714;2023-04-25T14:49:48;10.60;94.10
10249;DHT22;5169;50.560;9.714;2023-04-25T14:52:20;10.60;93.40
10249;DHT22;5169;50.560;9.714;2023-04-25T14:54:49;10.50;93.40
10249;DHT22;5169;50.560;9.714;2023-04-25T14:57:15;10.60;93.60
10249;DHT22;5169;50.560;9.714;2023-04-25T14:59:41;10.60;94.10
10249;DHT22;5169;50.560;9.714;2023-04-25T15:02:06;10.40;94.10
10249;DHT22;5169;50.560;9.714;2023-04-25T15:04:32;10.30;93.80
10249;DHT22;5169;50.560;9.714;2023-04-25T15:07:01;10.20;94.10
10249;DHT22;5169;50.560;9.714;2023-04-25T15:09:26;10.20;94.30
10249;DHT22;5169;50.560;9.714;2023-04-25T15:11:52;10.10;94.10
10249;DHT22;5169;50.560;9.714;2023-04-25T15:14:18;10.20;94.70
10249;DHT22;5169;50.560;9.714;2023-04-25T15:16:43;10.20;94.60
10249;DHT22;5169;50.560;9.714;2023-04-25T15:19:09;10.30;94.00
10249;DHT22;5169;50.560;9.714;2023-04-25T15:21:37;10.30;94.00
10249;DHT22;5169;50.560;9.714;2023-04-25T15:24:03;10.50;94.70
10249;DHT22;5169;50.560;9.714;2023-04-25T15:26:29;10.60;93.20
10249;DHT22;5169;50.560;9.714;2023-04-25T15:28:54;10.70;94.70
10249;DHT22;5169;50.560;9.714;2023-04-25T15:31:20;10.90;94.10
10249;DHT22;5169;50.560;9.714;2023-04-25T15:33:52;11.00;93.90
10249;DHT22;5169;50.560;9.714;2023-04-25T15:36:18;10.90;93.10
10249;DHT22;5169;50.560;9.714;2023-04-25T15:38:52;10.90;93.60
10249;DHT22;5169;50.560;9.714;2023-04-25T15:41:17;10.90;93.00
10249;DHT22;5169;50.560;9.714;2023-04-25T15:43:43;10.80;92.60
10249;DHT22;5169;50.560;9.714;2023-04-25T15:46:09;10.90;92.80
10249;DHT22;5169;50.560;9.714;2023-04-25T15:48:40;10.70;92.40
10249;DHT22;5169;50.560;9.714;2023-04-25T15:51:06;10.60;93.80
10249;DHT22;5169;50.560;9.714;2023-04-25T15:53:34;10.60;92.90
10249;DHT22;5169;50.560;9.714;2023-04-25T15:56:09;10.60;93.80
10249;DHT22;5169;50.560;9.714;2023-04-25T15:58:35;10.70;92.50
10249;DHT22;5169;50.560;9.714;2023-04-25T16:01:03;10.60;92.60
10249;DHT22;5169;50.560;9.714;2023-04-25T16:03:29;10.60;93.20
10249;DHT22;5169;50.560;9.714;2023-04-25T16:05:56;10.60;92.50
10249;DHT22;5169;50.560;9.714;2023-04-25T16:08:22;10.60;92.70
10249;DHT22;5169;50.560;9.714;2023-04-25T16:10:54;10.60;92.30
10249;DHT22;5169;50.560;9.714;2023-04-25T16:13:19;10.50;92.00
10249;DHT22;5169;50.560;9.714;2023-04-25T16:15:52;10.50;92.40
10249;DHT22;5169;50.560;9.714;2023-04-25T16:18:18;10.50;92.90